createdAt,value
2023-05-04T00:00:46.168Z,11.77
2023-05-04T00:03:13.366Z,11.78
2023-05-04T00:05:40.645Z,11.79
2023-05-04T00:08:16.897Z,11.77
2023-05-04T00:10:44.077Z,11.76
2023-05-04T00:13:14.728Z,11.77
2023-05-04T00:15:42.118Z,11.79
2023-05-04T00:18:09.281Z,11.80
2023-05-04T00:20:43.050Z,11.79
2023-05-04T00:23:10.143Z,11.76
2023-05-04T00:25:37.180Z,11.76
2023-05-04T00:28:04.340Z,11.79
2023-05-04T00:30:31.693Z,11.79
2023-05-04T00:32:58.877Z,11.77
2023-05-04T00:35:30.446Z,11.73
2023-05-04T00:38:19.606Z,11.71
2023-05-04T00:40:46.648Z,11.73
2023-05-04T00:43:13.903Z,11.74
2023-05-04T00:45:42.076Z,11.73
2023-05-04T00:48:09.556Z,11.70
2023-05-04T00:50:36.673Z,11.70
2023-05-04T00:53:08.453Z,11.71
2023-05-04T00:55:40.201Z,11.72
2023-05-04T00:58:08.132Z,11.72
2023-05-04T01:00:36.653Z,11.67
2023-05-04T01:03:05.322Z,11.64
2023-05-04T01:05:38.307Z,11.68
2023-05-04T01:08:11.601Z,11.74
2023-05-04T01:10:47.760Z,11.74
2023-05-04T01:13:17.735Z,11.72
2023-05-04T01:15:44.993Z,11.74
2023-05-04T01:18:12.384Z,11.78
2023-05-04T01:20:39.508Z,11.81
2023-05-04T01:23:07.164Z,11.80
2023-05-04T01:25:49.870Z,11.76
2023-05-04T01:28:19.921Z,11.75
2023-05-04T01:30:54.313Z,11.74
2023-05-04T01:33:29.386Z,11.71
2023-05-04T01:35:59.195Z,11.65
2023-05-04T01:38:26.389Z,11.63
2023-05-04T01:40:59.045Z,11.64
2023-05-04T01:43:26.991Z,11.65
2023-05-04T01:45:54.097Z,11.63
2023-05-04T01:48:21.302Z,11.64
2023-05-04T01:50:50.904Z,11.68
2023-05-04T01:53:21.444Z,11.74
2023-05-04T01:55:48.683Z,11.78
2023-05-04T01:58:33.314Z,11.79
2023-05-04T02:01:00.884Z,11.81
2023-05-04T02:03:28.472Z,11.83
2023-05-04T02:05:55.890Z,11.83
2023-05-04T02:08:23.455Z,11.79
2023-05-04T02:10:50.504Z,11.73
2023-05-04T02:13:18.605Z,11.71
2023-05-04T02:15:46.404Z,11.70
2023-05-04T02:18:13.655Z,11.68
2023-05-04T02:20:41.362Z,11.64
2023-05-04T02:23:09.332Z,11.60
2023-05-04T02:25:39.661Z,11.58
2023-05-04T02:28:07.224Z,11.58
2023-05-04T02:30:34.787Z,11.57
2023-05-04T02:33:02.728Z,11.55
2023-05-04T02:35:29.878Z,11.52
2023-05-04T02:37:57.232Z,11.51
2023-05-04T02:40:24.284Z,11.52
2023-05-04T02:42:51.533Z,11.53
2023-05-04T02:45:18.798Z,11.53
2023-05-04T02:47:45.865Z,11.50
2023-05-04T02:50:13.093Z,11.50
2023-05-04T02:52:40.138Z,11.53
2023-05-04T02:55:07.700Z,11.54
2023-05-04T02:57:34.951Z,11.51
2023-05-04T03:00:02.410Z,11.46
2023-05-04T03:02:29.684Z,11.42
2023-05-04T03:04:56.916Z,11.40
2023-05-04T03:07:24.068Z,11.44
2023-05-04T03:09:51.108Z,11.44
2023-05-04T03:12:18.278Z,11.44
2023-05-04T03:14:46.405Z,11.44
2023-05-04T03:17:13.482Z,11.45
2023-05-04T03:19:40.535Z,11.50
2023-05-04T03:22:08.920Z,11.54
2023-05-04T03:24:37.394Z,11.58
2023-05-04T03:27:04.954Z,11.58
2023-05-04T03:29:32.932Z,11.57
2023-05-04T03:32:00.248Z,11.58
2023-05-04T03:34:27.631Z,11.64
2023-05-04T03:36:58.478Z,11.67
2023-05-04T03:39:26.748Z,11.70
2023-05-04T03:41:54.929Z,11.72
2023-05-04T03:44:22.795Z,11.72
2023-05-04T03:46:49.742Z,11.75
2023-05-04T03:49:16.889Z,11.81
2023-05-04T03:51:43.942Z,11.87
2023-05-04T03:54:12.622Z,11.89
2023-05-04T03:56:39.775Z,11.90
2023-05-04T03:59:07.133Z,11.94
2023-05-04T04:01:34.380Z,12.03
2023-05-04T04:04:02.851Z,12.11
2023-05-04T04:06:31.145Z,12.16
2023-05-04T04:08:58.288Z,12.17
2023-05-04T04:11:26.368Z,12.17
2023-05-04T04:13:54.131Z,12.19
2023-05-04T04:16:21.584Z,12.27
2023-05-04T04:18:49.045Z,12.34
2023-05-04T04:21:15.963Z,12.40
2023-05-04T04:23:43.033Z,12.42
2023-05-04T04:26:10.692Z,12.45
2023-05-04T04:28:38.152Z,12.52
2023-05-04T04:31:05.125Z,12.59
2023-05-04T04:33:32.414Z,12.64
2023-05-04T04:36:00.889Z,12.68
2023-05-04T04:38:28.096Z,12.70
2023-05-04T04:40:55.150Z,12.72
2023-05-04T04:43:22.189Z,12.77
2023-05-04T04:45:49.535Z,12.82
2023-05-04T04:48:19.361Z,12.80
2023-05-04T04:50:46.911Z,12.72
2023-05-04T04:53:13.862Z,12.69
2023-05-04T04:55:42.089Z,12.70
2023-05-04T04:58:09.807Z,12.73
2023-05-04T05:00:37.150Z,12.73
2023-05-04T05:03:05.004Z,12.74
2023-05-04T05:05:32.376Z,12.73
2023-05-04T05:07:59.544Z,12.73
2023-05-04T05:10:26.980Z,12.79
2023-05-04T05:12:54.171Z,12.82
2023-05-04T05:15:21.180Z,12.82
2023-05-04T05:17:48.276Z,12.79
2023-05-04T05:20:15.818Z,12.78
2023-05-04T05:22:43.460Z,12.81
2023-05-04T05:25:11.421Z,12.88
2023-05-04T05:27:38.468Z,12.98
2023-05-04T05:30:06.863Z,13.03
2023-05-04T05:32:34.254Z,13.04
2023-05-04T05:35:01.469Z,13.05
2023-05-04T05:37:28.718Z,13.08
2023-05-04T05:39:55.880Z,13.14
2023-05-04T05:42:23.239Z,13.21
2023-05-04T05:44:51.249Z,13.24
2023-05-04T05:47:18.436Z,13.25
2023-05-04T05:49:46.472Z,13.32
2023-05-04T05:52:13.864Z,13.48
2023-05-04T05:54:41.640Z,13.71
2023-05-04T05:57:08.776Z,13.92
2023-05-04T05:59:35.728Z,14.08
2023-05-04T06:02:02.669Z,14.22
2023-05-04T06:04:29.979Z,14.31
2023-05-04T06:06:57.082Z,14.45
2023-05-04T06:09:24.325Z,14.59
2023-05-04T06:11:53.349Z,14.75
2023-05-04T06:14:21.913Z,14.87
2023-05-04T06:16:49.308Z,14.95
2023-05-04T06:19:16.513Z,15.04
2023-05-04T06:21:43.760Z,15.17
2023-05-04T06:24:11.087Z,15.22
2023-05-04T06:26:40.448Z,15.27
2023-05-04T06:29:07.685Z,15.35
2023-05-04T07:54:02.253Z,17.48
2023-05-04T07:56:29.428Z,18.12
2023-05-04T07:58:56.557Z,17.98
2023-05-04T08:01:24.814Z,17.84
2023-05-04T08:03:52.103Z,17.79
2023-05-04T08:06:19.147Z,17.76
2023-05-04T08:08:46.690Z,17.64
2023-05-04T08:11:20.551Z,17.49
2023-05-04T08:13:49.077Z,17.47
2023-05-04T08:16:16.528Z,17.43
2023-05-04T08:18:43.871Z,17.35
2023-05-04T08:21:10.907Z,17.30
2023-05-04T08:23:38.059Z,17.39
2023-05-04T08:26:05.627Z,17.44
2023-05-04T08:28:40.937Z,17.36
2023-05-04T08:31:08.224Z,17.30
2023-05-04T08:33:35.318Z,17.33
2023-05-04T08:36:04.235Z,17.36
2023-05-04T08:38:31.574Z,17.47
2023-05-04T08:40:58.886Z,17.62
2023-05-04T08:43:25.873Z,17.70
2023-05-04T08:45:52.951Z,17.75
2023-05-04T08:48:20.063Z,17.84
2023-05-04T08:50:53.154Z,18.01
2023-05-04T08:53:20.613Z,18.21
2023-05-04T08:55:50.625Z,18.47
2023-05-04T08:58:18.283Z,18.76
2023-05-04T09:00:45.465Z,18.95
2023-05-04T09:03:13.715Z,19.03
2023-05-04T09:05:44.157Z,19.21
2023-05-04T09:08:11.521Z,19.35
2023-05-04T09:10:38.645Z,19.18
2023-05-04T09:13:05.859Z,19.14
2023-05-04T09:15:33.458Z,19.30
2023-05-04T09:18:04.950Z,19.42
2023-05-04T09:20:32.307Z,19.72
2023-05-04T09:23:07.652Z,20.11
2023-05-04T09:25:48.962Z,20.54
2023-05-04T09:28:16.664Z,20.90
2023-05-04T09:30:44.069Z,21.17
2023-05-04T09:33:11.443Z,21.29
2023-05-04T09:35:42.562Z,21.24
2023-05-04T09:38:09.736Z,21.08
2023-05-04T09:40:46.299Z,21.01
2023-05-04T09:43:13.763Z,21.04
2023-05-04T09:45:41.528Z,21.08
2023-05-04T09:48:37.245Z,21.08
2023-05-04T09:51:06.425Z,21.06
2023-05-04T09:53:33.504Z,21.02
2023-05-04T09:56:07.301Z,20.93
2023-05-04T09:58:35.416Z,20.89
2023-05-04T10:01:02.720Z,20.86
2023-05-04T10:03:30.500Z,20.82
2023-05-04T10:06:00.202Z,20.73
2023-05-04T10:08:28.581Z,20.72
2023-05-04T10:10:55.628Z,20.77
2023-05-04T10:13:23.825Z,20.88
2023-05-04T10:16:14.663Z,20.92
2023-05-04T10:19:00.818Z,21.12
2023-05-04T10:21:40.138Z,21.42
2023-05-04T10:24:13.664Z,21.75
2023-05-04T10:27:01.167Z,21.99
2023-05-04T10:29:29.781Z,22.27
2023-05-04T10:31:57.888Z,22.48
2023-05-04T10:34:35.303Z,22.60
2023-05-04T10:37:03.524Z,22.79
2023-05-04T10:39:31.997Z,22.90
2023-05-04T10:42:04.054Z,22.90
2023-05-04T10:44:32.727Z,22.77
2023-05-04T10:47:07.912Z,22.64
2023-05-04T10:49:44.226Z,22.58
2023-05-04T10:52:13.045Z,22.57
2023-05-04T10:54:41.592Z,22.53
2023-05-04T10:57:10.572Z,22.47
2023-05-04T10:59:42.975Z,22.56
2023-05-04T11:02:22.726Z,22.62
2023-05-04T11:05:00.544Z,22.64
2023-05-04T11:07:38.376Z,22.66
2023-05-04T11:10:07.113Z,22.72
2023-05-04T11:12:43.851Z,22.87
2023-05-04T11:15:14.099Z,22.99
2023-05-04T11:17:52.205Z,23.07
2023-05-04T11:20:26.702Z,23.24
2023-05-04T11:22:54.373Z,23.31
2023-05-04T11:25:28.568Z,23.24
2023-05-04T11:27:56.839Z,23.10
2023-05-04T11:30:34.207Z,22.95
2023-05-04T11:33:02.917Z,22.73
2023-05-04T11:35:30.338Z,22.64
2023-05-04T11:37:57.592Z,22.48
2023-05-04T11:40:27.205Z,22.14
2023-05-04T11:42:56.921Z,21.86
2023-05-04T11:45:25.577Z,21.76
2023-05-04T11:47:53.447Z,21.78
2023-05-04T11:50:21.028Z,21.88
2023-05-04T11:52:48.175Z,21.97
2023-05-04T11:55:28.537Z,21.92
2023-05-04T11:58:03.514Z,21.73
2023-05-04T12:00:43.978Z,21.68
2023-05-04T12:03:15.952Z,21.68
2023-05-04T12:05:47.576Z,21.77
2023-05-04T12:08:27.848Z,22.02
2023-05-04T12:11:25.803Z,22.24
2023-05-04T12:14:07.228Z,22.14
2023-05-04T12:16:34.561Z,21.87
2023-05-04T12:19:05.169Z,21.63
2023-05-04T12:21:32.926Z,21.46
2023-05-04T12:24:04.553Z,21.20
2023-05-04T12:26:31.913Z,21.04
2023-05-04T12:28:58.959Z,20.94
2023-05-04T12:31:27.374Z,20.97
2023-05-04T12:33:54.487Z,21.09
2023-05-04T12:36:21.466Z,21.23
2023-05-04T12:38:48.621Z,21.48
2023-05-04T12:41:15.541Z,21.66
2023-05-04T12:43:43.305Z,21.71
2023-05-04T12:46:10.750Z,21.86
2023-05-04T12:48:37.978Z,22.10
2023-05-04T12:51:05.357Z,22.24
2023-05-04T12:53:32.557Z,22.31
2023-05-04T12:56:00.188Z,22.23
2023-05-04T12:58:27.881Z,22.16
2023-05-04T13:00:55.862Z,22.00
2023-05-04T13:03:23.745Z,21.72
2023-05-04T13:05:51.486Z,21.40
2023-05-04T13:08:19.982Z,21.12
2023-05-04T13:10:47.508Z,20.84
2023-05-04T13:13:17.406Z,20.53
2023-05-04T13:15:45.365Z,20.26
2023-05-04T13:18:13.261Z,20.13
2023-05-04T13:20:41.041Z,20.03
2023-05-04T13:23:08.419Z,19.92
2023-05-04T13:25:35.363Z,19.80
2023-05-04T13:28:02.425Z,19.81
2023-05-04T13:30:29.976Z,19.72
2023-05-04T13:32:57.059Z,19.77
2023-05-04T13:35:24.280Z,19.81
2023-05-04T13:37:51.801Z,19.82
2023-05-04T13:40:18.909Z,19.84
2023-05-04T13:42:46.041Z,19.81
2023-05-04T13:45:13.411Z,19.69
2023-05-04T13:47:40.967Z,19.55
2023-05-04T13:50:08.866Z,19.32
2023-05-04T13:52:37.008Z,19.12
2023-05-04T13:55:05.023Z,19.05
2023-05-04T13:57:32.493Z,18.93
2023-05-04T14:00:06.345Z,18.70
2023-05-04T14:02:38.836Z,18.41
2023-05-04T14:05:07.744Z,18.15
2023-05-04T14:07:35.129Z,17.89
2023-05-04T14:10:02.802Z,17.67
2023-05-04T14:12:29.986Z,17.55
2023-05-04T14:14:57.665Z,17.48
2023-05-04T14:17:25.509Z,17.47
2023-05-04T14:19:52.718Z,17.44
2023-05-04T14:22:19.870Z,17.35
2023-05-04T14:24:47.109Z,17.23
2023-05-04T14:27:14.328Z,17.09
2023-05-04T14:29:41.434Z,17.05
2023-05-04T14:32:08.570Z,17.09
2023-05-04T14:34:36.713Z,17.09
2023-05-04T14:37:03.714Z,17.05
2023-05-04T14:39:31.086Z,17.00
2023-05-04T14:41:58.397Z,16.85
2023-05-04T14:44:28.164Z,16.76
2023-05-04T14:46:56.330Z,16.80
2023-05-04T14:49:36.468Z,16.92
2023-05-04T14:52:05.278Z,17.03
2023-05-04T14:54:32.831Z,17.05
2023-05-04T14:57:00.126Z,16.99
2023-05-04T14:59:27.956Z,16.93
2023-05-04T15:01:55.619Z,16.88
2023-05-04T15:04:23.141Z,16.78
2023-05-04T15:06:50.398Z,16.65
2023-05-04T15:09:17.463Z,16.53
2023-05-04T15:11:44.504Z,16.45
2023-05-04T15:14:11.881Z,16.35
2023-05-04T15:16:38.954Z,16.23
2023-05-04T15:19:06.661Z,16.10
2023-05-04T15:21:34.326Z,15.99
2023-05-04T15:24:01.476Z,15.90
2023-05-04T15:26:31.630Z,15.83
2023-05-04T15:29:01.823Z,15.72
2023-05-04T15:31:29.401Z,15.56
2023-05-04T15:33:56.834Z,15.42
2023-05-04T15:36:24.834Z,15.30
2023-05-04T15:38:54.923Z,15.19
2023-05-04T15:41:24.958Z,15.06
2023-05-04T15:43:52.195Z,14.93
2023-05-04T15:46:19.364Z,14.83
2023-05-04T15:48:49.570Z,14.76
2023-05-04T15:51:35.127Z,14.70
2023-05-04T15:54:03.592Z,14.65
2023-05-04T15:56:31.093Z,14.57
2023-05-04T15:58:58.455Z,14.48
2023-05-04T16:01:25.920Z,14.39
2023-05-04T16:03:59.773Z,14.30
2023-05-04T16:06:30.053Z,14.25
2023-05-04T16:08:57.775Z,14.15
2023-05-04T16:11:31.022Z,14.06
2023-05-04T16:13:58.245Z,13.97
2023-05-04T16:16:25.334Z,13.92
2023-05-04T16:18:53.267Z,13.86
2023-05-04T16:21:20.213Z,13.83
2023-05-04T16:23:47.244Z,13.77
2023-05-04T16:26:14.590Z,13.72
2023-05-04T16:28:41.646Z,13.68
2023-05-04T16:31:11.685Z,13.63
2023-05-04T16:33:39.277Z,13.59
2023-05-04T16:36:07.199Z,13.56
2023-05-04T16:38:34.273Z,13.49
2023-05-04T16:41:01.395Z,13.44
2023-05-04T16:43:28.546Z,13.37
2023-05-04T16:45:56.457Z,13.32
2023-05-04T16:48:27.452Z,13.31
2023-05-04T16:50:54.502Z,13.30
2023-05-04T16:53:21.597Z,13.27
2023-05-04T16:55:51.059Z,13.23
2023-05-04T16:58:18.206Z,13.17
2023-05-04T17:00:48.334Z,13.11
2023-05-04T17:03:15.875Z,13.07
2023-05-04T17:05:43.087Z,13.06
2023-05-04T17:08:17.760Z,13.01
2023-05-04T17:10:45.017Z,12.95
2023-05-04T17:13:12.399Z,12.89
2023-05-04T17:15:40.062Z,12.84
2023-05-04T17:18:07.407Z,12.80
2023-05-04T17:20:34.637Z,12.79
2023-05-04T17:23:02.074Z,12.76
2023-05-04T17:25:29.551Z,12.73
2023-05-04T17:27:59.867Z,12.66
2023-05-04T17:30:27.539Z,12.61
2023-05-04T17:32:57.580Z,12.60
2023-05-04T17:35:26.438Z,12.65
2023-05-04T17:37:58.768Z,12.66
2023-05-04T17:40:29.635Z,12.64
2023-05-04T17:42:57.171Z,12.58
2023-05-04T17:45:24.366Z,12.54
2023-05-04T17:47:54.653Z,12.51
2023-05-04T17:50:22.249Z,12.52
2023-05-04T17:52:55.921Z,12.49
2023-05-04T17:55:24.977Z,12.47
2023-05-04T17:57:53.888Z,12.41
2023-05-04T18:00:21.406Z,12.34
2023-05-04T18:02:48.804Z,12.31
2023-05-04T18:05:26.447Z,12.34
2023-05-04T18:07:53.809Z,12.35
2023-05-04T18:10:21.181Z,12.33
2023-05-04T18:12:48.451Z,12.27
2023-05-04T18:15:16.753Z,12.20
2023-05-04T18:17:43.930Z,12.12
2023-05-04T18:20:13.369Z,12.11
2023-05-04T18:22:42.551Z,12.09
2023-05-04T18:25:10.260Z,12.04
2023-05-04T18:27:37.498Z,11.96
2023-05-04T18:30:05.763Z,11.93
2023-05-04T18:32:36.737Z,11.96
2023-05-04T18:35:04.240Z,11.97
2023-05-04T18:37:31.787Z,11.94
2023-05-04T18:39:59.151Z,11.89
2023-05-04T18:42:26.763Z,11.83
2023-05-04T18:44:54.572Z,11.77
2023-05-04T18:47:22.686Z,11.75
2023-05-04T18:50:00.239Z,11.75
2023-05-04T18:52:27.292Z,11.76
2023-05-04T18:54:55.165Z,11.76
2023-05-04T18:57:22.411Z,11.74
2023-05-04T18:59:49.464Z,11.71
2023-05-04T19:02:16.523Z,11.70
2023-05-04T19:04:47.285Z,11.71
2023-05-04T19:07:16.099Z,11.69
2023-05-04T19:09:45.903Z,11.67
2023-05-04T19:12:14.353Z,11.64
2023-05-04T19:14:43.634Z,11.62
2023-05-04T19:17:10.860Z,11.59
2023-05-04T19:19:40.876Z,11.60
2023-05-04T19:22:07.826Z,11.62
2023-05-04T19:24:36.522Z,11.64
2023-05-04T19:27:04.172Z,11.65
2023-05-04T19:29:31.329Z,11.65
2023-05-04T19:32:01.311Z,11.63
2023-05-04T19:34:35.252Z,11.59
2023-05-04T19:37:02.404Z,11.55
2023-05-04T19:39:29.857Z,11.53
2023-05-04T19:41:59.772Z,11.51
2023-05-04T19:44:27.638Z,11.49
2023-05-04T19:46:54.855Z,11.47
2023-05-04T19:49:22.193Z,11.47
2023-05-04T19:51:49.392Z,11.50
2023-05-04T19:54:16.548Z,11.51
2023-05-04T19:56:43.912Z,11.52
2023-05-04T19:59:11.154Z,11.52
2023-05-04T20:02:20.536Z,11.53
2023-05-04T20:04:48.316Z,11.50
2023-05-04T20:07:15.407Z,11.48
2023-05-04T20:09:42.558Z,11.46
2023-05-04T20:12:09.528Z,11.43
2023-05-04T20:14:36.612Z,11.43
2023-05-04T20:17:03.801Z,11.48
2023-05-04T20:19:31.367Z,11.54
2023-05-04T20:21:58.460Z,11.57
2023-05-04T20:24:26.290Z,11.58
2023-05-04T20:26:53.520Z,11.58
2023-05-04T20:29:21.385Z,11.56
2023-05-04T20:31:48.460Z,11.53
2023-05-04T20:34:16.864Z,11.49
2023-05-04T20:36:46.421Z,11.43
2023-05-04T20:39:13.670Z,11.36
2023-05-04T20:41:41.333Z,11.28
2023-05-04T20:44:08.490Z,11.22
2023-05-04T20:46:35.815Z,11.15
2023-05-04T20:49:03.520Z,11.11
2023-05-04T20:51:31.277Z,11.11
2023-05-04T20:53:58.691Z,11.12
2023-05-04T20:56:25.985Z,11.13
2023-05-04T20:58:53.231Z,11.14
2023-05-04T21:01:20.458Z,11.14
2023-05-04T21:03:47.715Z,11.12
2023-05-04T21:06:15.201Z,11.10
2023-05-04T21:08:42.139Z,11.07
2023-05-04T21:11:09.322Z,11.03
2023-05-04T21:13:36.237Z,11.01
2023-05-04T21:16:03.325Z,11.03
2023-05-04T21:18:30.342Z,11.03
2023-05-04T21:20:57.380Z,10.99
2023-05-04T21:23:25.349Z,10.94
2023-05-04T21:26:00.645Z,10.91
2023-05-04T21:28:27.843Z,10.84
2023-05-04T21:30:54.781Z,10.77
2023-05-04T21:33:21.831Z,10.70
2023-05-04T21:35:48.874Z,10.64
2023-05-04T21:38:17.390Z,10.62
2023-05-04T21:40:45.535Z,10.59
2023-05-04T21:43:12.582Z,10.56
2023-05-04T21:45:39.587Z,10.52
2023-05-04T21:48:06.999Z,10.50
2023-05-04T21:50:34.034Z,10.48
2023-05-04T21:53:01.184Z,10.51
2023-05-04T21:55:29.384Z,10.60
2023-05-04T21:57:56.386Z,10.68
2023-05-04T22:00:24.133Z,10.75
2023-05-04T22:02:54.045Z,10.78
2023-05-04T22:05:22.726Z,10.78
2023-05-04T22:07:50.376Z,10.75
2023-05-04T22:10:18.183Z,10.71
2023-05-04T22:12:45.246Z,10.66
2023-05-04T22:15:12.478Z,10.64
2023-05-04T22:17:39.685Z,10.63
2023-05-04T22:20:08.113Z,10.63
2023-05-04T22:22:35.947Z,10.61
2023-05-04T22:25:03.452Z,10.60
2023-05-04T22:27:30.569Z,10.58
2023-05-04T22:29:57.714Z,10.60
2023-05-04T22:32:24.826Z,10.66
2023-05-04T22:34:51.811Z,10.73
2023-05-04T22:37:18.965Z,10.79
2023-05-04T22:39:46.430Z,10.85
2023-05-04T22:42:13.776Z,10.89
2023-05-04T22:44:41.133Z,10.90
2023-05-04T22:47:08.609Z,10.90
2023-05-04T22:49:35.890Z,10.91
2023-05-04T22:52:03.100Z,10.96
2023-05-04T22:54:30.245Z,10.99
2023-05-04T22:56:57.411Z,10.99
2023-05-04T22:59:24.360Z,10.96
2023-05-04T23:01:51.490Z,10.94
2023-05-04T23:04:18.648Z,10.92
2023-05-04T23:06:45.799Z,10.91
2023-05-04T23:09:14.386Z,10.94
2023-05-04T23:11:41.957Z,10.97
2023-05-04T23:14:09.097Z,10.95
2023-05-04T23:16:36.208Z,10.93
2023-05-04T23:19:03.942Z,10.90
2023-05-04T23:21:31.781Z,10.88
2023-05-04T23:23:58.929Z,10.88
2023-05-04T23:26:25.991Z,10.90
2023-05-04T23:28:53.027Z,10.91
2023-05-04T23:31:20.214Z,10.91
2023-05-04T23:33:47.325Z,10.88
2023-05-04T23:36:14.542Z,10.85
2023-05-04T23:38:41.833Z,10.81
2023-05-04T23:41:08.879Z,10.78
2023-05-04T23:43:36.237Z,10.81
2023-05-04T23:46:04.258Z,10.85
2023-05-04T23:48:32.210Z,10.85
2023-05-04T23:51:04.136Z,10.84
2023-05-04T23:53:34.260Z,10.80
2023-05-04T23:56:05.603Z,10.76
2023-05-04T23:58:33.552Z,10.77
